sensor_id;sensor_type;location;lat;lon;timestamp;P1;durP1;ratioP1;P2;durP2;ratioP2
54502;SDS011;40411;50.090;21.954;2023-06-01T00:01:28;56.00;;;21.08;;
54502;SDS011;40411;50.090;21.954;2023-06-01T00:03:59;59.50;;;18.98;;
54502;SDS011;40411;50.090;21.954;2023-06-01T00:06:25;49.30;;;18.27;;
54502;SDS011;40411;50.090;21.954;2023-06-01T00:08:54;44.03;;;16.95;;
54502;SDS011;40411;50.090;21.954;2023-06-01T00:11:21;53.60;;;17.05;;
54502;SDS011;40411;50.090;21.954;2023-06-01T00:13:47;48.00;;;15.52;;
54502;SDS011;40411;50.090;21.954;2023-06-01T00:16:14;43.67;;;13.88;;
54502;SDS011;40411;50.090;21.954;2023-06-01T00:18:40;29.38;;;13.43;;
54502;SDS011;40411;50.090;21.954;2023-06-01T00:21:06;45.28;;;14.77;;
54502;SDS011;40411;50.090;21.954;2023-06-01T00:23:32;33.80;;;13.77;;
54502;SDS011;40411;50.090;21.954;2023-06-01T00:25:59;35.45;;;13.18;;
54502;SDS011;40411;50.090;21.954;2023-06-01T00:28:26;31.70;;;12.60;;
54502;SDS011;40411;50.090;21.954;2023-06-01T00:30:52;32.22;;;12.50;;
54502;SDS011;40411;50.090;21.954;2023-06-01T00:33:19;43.30;;;13.43;;
54502;SDS011;40411;50.090;21.954;2023-06-01T00:35:45;37.95;;;12.95;;
54502;SDS011;40411;50.090;21.954;2023-06-01T00:38:11;40.50;;;15.13;;
54502;SDS011;40411;50.090;21.954;2023-06-01T00:40:37;30.25;;;11.50;;
54502;SDS011;40411;50.090;21.954;2023-06-01T00:43:03;39.50;;;11.88;;
54502;SDS011;40411;50.090;21.954;2023-06-01T00:45:30;24.65;;;9.63;;
54502;SDS011;40411;50.090;21.954;2023-06-01T00:47:56;32.17;;;11.10;;
54502;SDS011;40411;50.090;21.954;2023-06-01T00:50:22;26.38;;;10.68;;
54502;SDS011;40411;50.090;21.954;2023-06-01T00:52:51;20.50;;;9.90;;
54502;SDS011;40411;50.090;21.954;2023-06-01T00:55:19;23.88;;;9.48;;
54502;SDS011;40411;50.090;21.954;2023-06-01T00:57:46;27.02;;;8.95;;
54502;SDS011;40411;50.090;21.954;2023-06-01T01:00:12;19.77;;;8.95;;
54502;SDS011;40411;50.090;21.954;2023-06-01T01:02:39;26.00;;;9.75;;
54502;SDS011;40411;50.090;21.954;2023-06-01T01:05:06;22.08;;;9.18;;
54502;SDS011;40411;50.090;21.954;2023-06-01T01:10:57;19.13;;;8.10;;
54502;SDS011;40411;50.090;21.954;2023-06-01T01:13:48;22.08;;;10.25;;
54502;SDS011;40411;50.090;21.954;2023-06-01T01:16:30;27.15;;;10.02;;
54502;SDS011;40411;50.090;21.954;2023-06-01T01:21:57;18.15;;;8.50;;
54502;SDS011;40411;50.090;21.954;2023-06-01T01:30:21;18.98;;;7.82;;
54502;SDS011;40411;50.090;21.954;2023-06-01T01:32:52;23.58;;;8.75;;
54502;SDS011;40411;50.090;21.954;2023-06-01T01:35:20;23.50;;;8.00;;
54502;SDS011;40411;50.090;21.954;2023-06-01T01:37:50;17.00;;;8.65;;
54502;SDS011;40411;50.090;21.954;2023-06-01T01:40:17;24.08;;;8.52;;
54502;SDS011;40411;50.090;21.954;2023-06-01T01:42:43;17.60;;;8.70;;
54502;SDS011;40411;50.090;21.954;2023-06-01T01:45:08;19.73;;;8.88;;
54502;SDS011;40411;50.090;21.954;2023-06-01T01:47:44;24.10;;;9.02;;
54502;SDS011;40411;50.090;21.954;2023-06-01T01:50:12;22.70;;;9.60;;
54502;SDS011;40411;50.090;21.954;2023-06-01T01:52:41;29.20;;;9.02;;
54502;SDS011;40411;50.090;21.954;2023-06-01T01:55:09;23.90;;;8.77;;
54502;SDS011;40411;50.090;21.954;2023-06-01T01:57:36;24.13;;;9.57;;
54502;SDS011;40411;50.090;21.954;2023-06-01T02:00:04;18.85;;;8.63;;
54502;SDS011;40411;50.090;21.954;2023-06-01T02:02:39;19.58;;;8.13;;
54502;SDS011;40411;50.090;21.954;2023-06-01T02:05:05;25.30;;;8.73;;
54502;SDS011;40411;50.090;21.954;2023-06-01T02:07:31;21.48;;;8.15;;
54502;SDS011;40411;50.090;21.954;2023-06-01T02:10:01;13.93;;;7.07;;
54502;SDS011;40411;50.090;21.954;2023-06-01T02:12:28;16.88;;;6.20;;
54502;SDS011;40411;50.090;21.954;2023-06-01T02:14:54;15.63;;;7.28;;
54502;SDS011;40411;50.090;21.954;2023-06-01T02:17:20;12.52;;;5.97;;
54502;SDS011;40411;50.090;21.954;2023-06-01T02:19:47;11.95;;;6.80;;
54502;SDS011;40411;50.090;21.954;2023-06-01T02:22:13;21.38;;;7.20;;
54502;SDS011;40411;50.090;21.954;2023-06-01T02:24:39;14.75;;;6.53;;
54502;SDS011;40411;50.090;21.954;2023-06-01T02:27:05;20.55;;;7.50;;
54502;SDS011;40411;50.090;21.954;2023-06-01T02:29:32;12.32;;;7.55;;
54502;SDS011;40411;50.090;21.954;2023-06-01T02:31:58;15.77;;;7.35;;
54502;SDS011;40411;50.090;21.954;2023-06-01T02:34:24;20.17;;;7.07;;
54502;SDS011;40411;50.090;21.954;2023-06-01T02:36:50;21.52;;;7.55;;
54502;SDS011;40411;50.090;21.954;2023-06-01T02:39:21;20.48;;;7.32;;
54502;SDS011;40411;50.090;21.954;2023-06-01T02:41:48;17.13;;;7.18;;
54502;SDS011;40411;50.090;21.954;2023-06-01T02:44:14;19.02;;;8.55;;
54502;SDS011;40411;50.090;21.954;2023-06-01T02:46:40;15.85;;;8.25;;
54502;SDS011;40411;50.090;21.954;2023-06-01T02:49:05;24.10;;;8.10;;
54502;SDS011;40411;50.090;21.954;2023-06-01T02:51:32;20.35;;;8.73;;
54502;SDS011;40411;50.090;21.954;2023-06-01T02:54:18;18.98;;;9.00;;
54502;SDS011;40411;50.090;21.954;2023-06-01T02:56:44;17.10;;;8.93;;
54502;SDS011;40411;50.090;21.954;2023-06-01T02:59:20;20.15;;;9.00;;
54502;SDS011;40411;50.090;21.954;2023-06-01T03:01:51;16.17;;;7.65;;
54502;SDS011;40411;50.090;21.954;2023-06-01T03:04:17;16.70;;;8.18;;
54502;SDS011;40411;50.090;21.954;2023-06-01T03:06:44;26.25;;;11.10;;
54502;SDS011;40411;50.090;21.954;2023-06-01T03:09:29;32.05;;;12.40;;
54502;SDS011;40411;50.090;21.954;2023-06-01T03:11:59;42.50;;;14.32;;
54502;SDS011;40411;50.090;21.954;2023-06-01T03:14:27;33.45;;;12.23;;
54502;SDS011;40411;50.090;21.954;2023-06-01T03:16:53;42.13;;;15.52;;
54502;SDS011;40411;50.090;21.954;2023-06-01T03:19:21;95.93;;;32.45;;
54502;SDS011;40411;50.090;21.954;2023-06-01T03:21:50;108.13;;;34.67;;
54502;SDS011;40411;50.090;21.954;2023-06-01T03:24:19;158.45;;;50.78;;
54502;SDS011;40411;50.090;21.954;2023-06-01T03:26:46;178.70;;;52.08;;
54502;SDS011;40411;50.090;21.954;2023-06-01T03:29:12;173.73;;;56.47;;
54502;SDS011;40411;50.090;21.954;2023-06-01T03:31:38;209.52;;;62.00;;
54502;SDS011;40411;50.090;21.954;2023-06-01T03:34:05;239.30;;;64.68;;
54502;SDS011;40411;50.090;21.954;2023-06-01T03:36:31;203.85;;;56.05;;
54502;SDS011;40411;50.090;21.954;2023-06-01T03:38:58;145.02;;;43.83;;
54502;SDS011;40411;50.090;21.954;2023-06-01T03:41:26;132.93;;;37.88;;
54502;SDS011;40411;50.090;21.954;2023-06-01T03:43:52;96.35;;;30.77;;
54502;SDS011;40411;50.090;21.954;2023-06-01T03:46:19;94.22;;;28.20;;
54502;SDS011;40411;50.090;21.954;2023-06-01T03:48:44;84.75;;;25.25;;
54502;SDS011;40411;50.090;21.954;2023-06-01T03:51:11;60.55;;;20.33;;
54502;SDS011;40411;50.090;21.954;2023-06-01T03:53:36;42.38;;;15.35;;
54502;SDS011;40411;50.090;21.954;2023-06-01T03:56:02;37.03;;;13.43;;
54502;SDS011;40411;50.090;21.954;2023-06-01T03:58:30;31.33;;;11.98;;
54502;SDS011;40411;50.090;21.954;2023-06-01T04:00:57;29.08;;;11.35;;
54502;SDS011;40411;50.090;21.954;2023-06-01T04:03:23;21.20;;;7.68;;
54502;SDS011;40411;50.090;21.954;2023-06-01T04:05:50;19.73;;;8.20;;
54502;SDS011;40411;50.090;21.954;2023-06-01T04:08:15;14.60;;;7.00;;
54502;SDS011;40411;50.090;21.954;2023-06-01T04:10:43;18.98;;;8.48;;
54502;SDS011;40411;50.090;21.954;2023-06-01T04:13:09;15.73;;;7.18;;
54502;SDS011;40411;50.090;21.954;2023-06-01T04:15:36;16.48;;;7.65;;
54502;SDS011;40411;50.090;21.954;2023-06-01T04:18:03;16.52;;;8.02;;
54502;SDS011;40411;50.090;21.954;2023-06-01T04:20:44;23.38;;;8.25;;
54502;SDS011;40411;50.090;21.954;2023-06-01T04:23:10;20.17;;;9.10;;
54502;SDS011;40411;50.090;21.954;2023-06-01T04:25:36;16.70;;;7.90;;
54502;SDS011;40411;50.090;21.954;2023-06-01T04:28:03;20.10;;;8.02;;
54502;SDS011;40411;50.090;21.954;2023-06-01T04:30:32;19.85;;;8.25;;
54502;SDS011;40411;50.090;21.954;2023-06-01T04:32:58;16.20;;;8.20;;
54502;SDS011;40411;50.090;21.954;2023-06-01T04:35:25;17.73;;;8.13;;
54502;SDS011;40411;50.090;21.954;2023-06-01T04:37:51;22.05;;;8.02;;
54502;SDS011;40411;50.090;21.954;2023-06-01T04:40:17;20.58;;;8.45;;
54502;SDS011;40411;50.090;21.954;2023-06-01T04:42:43;15.77;;;5.97;;
54502;SDS011;40411;50.090;21.954;2023-06-01T04:45:18;16.98;;;6.68;;
54502;SDS011;40411;50.090;21.954;2023-06-01T04:47:44;14.18;;;5.10;;
54502;SDS011;40411;50.090;21.954;2023-06-01T04:50:18;12.55;;;5.43;;
54502;SDS011;40411;50.090;21.954;2023-06-01T04:52:44;9.75;;;4.55;;
54502;SDS011;40411;50.090;21.954;2023-06-01T04:55:10;10.52;;;4.72;;
54502;SDS011;40411;50.090;21.954;2023-06-01T04:57:38;19.30;;;4.50;;
54502;SDS011;40411;50.090;21.954;2023-06-01T05:00:06;14.45;;;4.57;;
54502;SDS011;40411;50.090;21.954;2023-06-01T05:02:36;10.95;;;4.25;;
54502;SDS011;40411;50.090;21.954;2023-06-01T05:05:04;12.23;;;4.97;;
54502;SDS011;40411;50.090;21.954;2023-06-01T05:07:31;17.45;;;4.10;;
54502;SDS011;40411;50.090;21.954;2023-06-01T05:09:57;11.20;;;4.43;;
54502;SDS011;40411;50.090;21.954;2023-06-01T05:12:24;12.77;;;4.30;;
54502;SDS011;40411;50.090;21.954;2023-06-01T05:14:50;18.02;;;3.97;;
54502;SDS011;40411;50.090;21.954;2023-06-01T05:17:17;12.88;;;4.15;;
54502;SDS011;40411;50.090;21.954;2023-06-01T05:19:43;19.02;;;4.60;;
54502;SDS011;40411;50.090;21.954;2023-06-01T05:22:08;10.07;;;4.18;;
54502;SDS011;40411;50.090;21.954;2023-06-01T05:24:34;14.30;;;4.38;;
54502;SDS011;40411;50.090;21.954;2023-06-01T05:27:01;19.00;;;4.07;;
54502;SDS011;40411;50.090;21.954;2023-06-01T05:29:28;22.10;;;5.05;;
54502;SDS011;40411;50.090;21.954;2023-06-01T05:31:54;14.23;;;4.53;;
54502;SDS011;40411;50.090;21.954;2023-06-01T05:34:20;14.30;;;4.15;;
54502;SDS011;40411;50.090;21.954;2023-06-01T05:36:48;12.27;;;4.25;;
54502;SDS011;40411;50.090;21.954;2023-06-01T05:39:17;18.73;;;3.97;;
54502;SDS011;40411;50.090;21.954;2023-06-01T05:41:43;19.38;;;5.97;;
54502;SDS011;40411;50.090;21.954;2023-06-01T05:44:09;8.43;;;3.42;;
54502;SDS011;40411;50.090;21.954;2023-06-01T05:46:35;10.55;;;3.80;;
54502;SDS011;40411;50.090;21.954;2023-06-01T05:49:01;10.77;;;3.97;;
54502;SDS011;40411;50.090;21.954;2023-06-01T05:51:27;8.15;;;3.60;;
54502;SDS011;40411;50.090;21.954;2023-06-01T05:53:55;9.93;;;3.55;;
54502;SDS011;40411;50.090;21.954;2023-06-01T05:56:20;18.38;;;4.03;;
54502;SDS011;40411;50.090;21.954;2023-06-01T05:58:46;9.27;;;3.55;;
54502;SDS011;40411;50.090;21.954;2023-06-01T06:01:15;11.38;;;3.78;;
54502;SDS011;40411;50.090;21.954;2023-06-01T06:03:42;19.15;;;3.78;;
54502;SDS011;40411;50.090;21.954;2023-06-01T06:06:09;11.23;;;3.65;;
54502;SDS011;40411;50.090;21.954;2023-06-01T06:08:35;9.13;;;3.65;;
54502;SDS011;40411;50.090;21.954;2023-06-01T06:11:01;9.48;;;3.30;;
54502;SDS011;40411;50.090;21.954;2023-06-01T06:13:27;11.65;;;3.10;;
54502;SDS011;40411;50.090;21.954;2023-06-01T06:15:53;9.80;;;3.70;;
54502;SDS011;40411;50.090;21.954;2023-06-01T06:18:20;9.95;;;3.10;;
54502;SDS011;40411;50.090;21.954;2023-06-01T06:20:46;12.02;;;3.15;;
54502;SDS011;40411;50.090;21.954;2023-06-01T06:23:12;10.25;;;3.20;;
54502;SDS011;40411;50.090;21.954;2023-06-01T06:25:38;10.00;;;3.47;;
54502;SDS011;40411;50.090;21.954;2023-06-01T06:28:05;9.65;;;2.97;;
54502;SDS011;40411;50.090;21.954;2023-06-01T06:30:31;12.95;;;3.78;;
54502;SDS011;40411;50.090;21.954;2023-06-01T06:32:57;8.88;;;3.47;;
54502;SDS011;40411;50.090;21.954;2023-06-01T06:35:23;11.25;;;3.30;;
54502;SDS011;40411;50.090;21.954;2023-06-01T06:37:49;6.53;;;3.00;;
54502;SDS011;40411;50.090;21.954;2023-06-01T06:40:15;7.55;;;3.05;;
54502;SDS011;40411;50.090;21.954;2023-06-01T06:42:44;9.55;;;3.17;;
54502;SDS011;40411;50.090;21.954;2023-06-01T06:45:10;9.73;;;2.53;;
54502;SDS011;40411;50.090;21.954;2023-06-01T06:47:36;9.65;;;2.80;;
54502;SDS011;40411;50.090;21.954;2023-06-01T06:50:02;10.13;;;2.70;;
54502;SDS011;40411;50.090;21.954;2023-06-01T06:52:28;8.13;;;3.13;;
54502;SDS011;40411;50.090;21.954;2023-06-01T06:54:54;7.65;;;2.75;;
54502;SDS011;40411;50.090;21.954;2023-06-01T06:57:20;7.22;;;2.67;;
54502;SDS011;40411;50.090;21.954;2023-06-01T06:59:46;5.70;;;2.50;;
54502;SDS011;40411;50.090;21.954;2023-06-01T07:02:12;8.18;;;2.95;;
54502;SDS011;40411;50.090;21.954;2023-06-01T07:04:38;9.57;;;2.90;;
54502;SDS011;40411;50.090;21.954;2023-06-01T07:07:05;8.50;;;2.88;;
54502;SDS011;40411;50.090;21.954;2023-06-01T07:09:31;11.57;;;2.90;;
54502;SDS011;40411;50.090;21.954;2023-06-01T07:11:57;7.10;;;2.78;;
54502;SDS011;40411;50.090;21.954;2023-06-01T07:14:23;5.70;;;2.70;;
54502;SDS011;40411;50.090;21.954;2023-06-01T07:16:48;11.13;;;3.08;;
54502;SDS011;40411;50.090;21.954;2023-06-01T07:19:15;12.10;;;6.28;;
54502;SDS011;40411;50.090;21.954;2023-06-01T07:21:42;7.93;;;2.97;;
54502;SDS011;40411;50.090;21.954;2023-06-01T07:24:09;17.45;;;4.35;;
54502;SDS011;40411;50.090;21.954;2023-06-01T07:26:36;6.43;;;2.63;;
54502;SDS011;40411;50.090;21.954;2023-06-01T07:29:02;9.32;;;2.75;;
54502;SDS011;40411;50.090;21.954;2023-06-01T07:31:28;8.90;;;2.97;;
54502;SDS011;40411;50.090;21.954;2023-06-01T07:33:54;8.55;;;3.55;;
54502;SDS011;40411;50.090;21.954;2023-06-01T07:36:22;10.60;;;4.03;;
54502;SDS011;40411;50.090;21.954;2023-06-01T07:38:49;7.25;;;2.80;;
54502;SDS011;40411;50.090;21.954;2023-06-01T07:41:16;9.13;;;2.92;;
54502;SDS011;40411;50.090;21.954;2023-06-01T07:43:41;5.82;;;2.80;;
54502;SDS011;40411;50.090;21.954;2023-06-01T07:46:08;7.03;;;2.47;;
54502;SDS011;40411;50.090;21.954;2023-06-01T07:48:33;8.50;;;2.60;;
54502;SDS011;40411;50.090;21.954;2023-06-01T07:51:03;10.02;;;2.30;;
54502;SDS011;40411;50.090;21.954;2023-06-01T07:53:31;15.27;;;2.70;;
54502;SDS011;40411;50.090;21.954;2023-06-01T07:55:57;9.70;;;2.45;;
54502;SDS011;40411;50.090;21.954;2023-06-01T07:58:23;8.40;;;2.53;;
54502;SDS011;40411;50.090;21.954;2023-06-01T08:00:49;5.63;;;2.22;;
54502;SDS011;40411;50.090;21.954;2023-06-01T08:03:14;8.07;;;2.22;;
54502;SDS011;40411;50.090;21.954;2023-06-01T08:05:41;6.38;;;2.22;;
54502;SDS011;40411;50.090;21.954;2023-06-01T08:08:10;16.77;;;2.53;;
54502;SDS011;40411;50.090;21.954;2023-06-01T08:10:36;8.02;;;2.55;;
54502;SDS011;40411;50.090;21.954;2023-06-01T08:13:04;7.03;;;2.13;;
54502;SDS011;40411;50.090;21.954;2023-06-01T08:15:32;10.38;;;2.17;;
54502;SDS011;40411;50.090;21.954;2023-06-01T08:18:02;9.95;;;2.25;;
54502;SDS011;40411;50.090;21.954;2023-06-01T08:20:28;6.38;;;2.08;;
54502;SDS011;40411;50.090;21.954;2023-06-01T08:22:55;6.68;;;2.05;;
54502;SDS011;40411;50.090;21.954;2023-06-01T08:25:21;5.93;;;2.15;;
54502;SDS011;40411;50.090;21.954;2023-06-01T08:27:47;6.82;;;2.00;;
54502;SDS011;40411;50.090;21.954;2023-06-01T08:30:15;5.78;;;2.10;;
54502;SDS011;40411;50.090;21.954;2023-06-01T08:32:41;7.75;;;1.73;;
54502;SDS011;40411;50.090;21.954;2023-06-01T08:35:07;4.18;;;1.60;;
54502;SDS011;40411;50.090;21.954;2023-06-01T08:37:33;4.22;;;1.50;;
54502;SDS011;40411;50.090;21.954;2023-06-01T08:40:00;4.90;;;1.80;;
54502;SDS011;40411;50.090;21.954;2023-06-01T08:45:04;6.18;;;1.85;;
54502;SDS011;40411;50.090;21.954;2023-06-01T08:47:31;6.63;;;2.33;;
54502;SDS011;40411;50.090;21.954;2023-06-01T08:49:58;6.43;;;1.92;;
54502;SDS011;40411;50.090;21.954;2023-06-01T08:52:25;4.95;;;2.10;;
54502;SDS011;40411;50.090;21.954;2023-06-01T08:54:58;4.15;;;1.70;;
54502;SDS011;40411;50.090;21.954;2023-06-01T08:57:25;6.50;;;2.15;;
54502;SDS011;40411;50.090;21.954;2023-06-01T08:59:51;4.45;;;1.92;;
54502;SDS011;40411;50.090;21.954;2023-06-01T09:02:17;7.10;;;1.98;;
54502;SDS011;40411;50.090;21.954;2023-06-01T09:04:45;6.82;;;2.10;;
54502;SDS011;40411;50.090;21.954;2023-06-01T09:07:11;7.15;;;2.20;;
54502;SDS011;40411;50.090;21.954;2023-06-01T09:09:38;7.28;;;2.17;;
54502;SDS011;40411;50.090;21.954;2023-06-01T09:15:04;10.68;;;2.08;;
54502;SDS011;40411;50.090;21.954;2023-06-01T09:17:37;8.57;;;2.25;;
54502;SDS011;40411;50.090;21.954;2023-06-01T09:20:06;5.40;;;2.30;;
54502;SDS011;40411;50.090;21.954;2023-06-01T09:22:37;4.63;;;2.05;;
54502;SDS011;40411;50.090;21.954;2023-06-01T09:25:08;5.28;;;2.08;;
54502;SDS011;40411;50.090;21.954;2023-06-01T09:27:47;9.10;;;2.20;;
54502;SDS011;40411;50.090;21.954;2023-06-01T09:30:15;5.32;;;2.00;;
54502;SDS011;40411;50.090;21.954;2023-06-01T09:32:42;8.07;;;2.35;;
54502;SDS011;40411;50.090;21.954;2023-06-01T09:35:10;9.85;;;2.25;;
54502;SDS011;40411;50.090;21.954;2023-06-01T09:37:36;5.40;;;2.10;;
54502;SDS011;40411;50.090;21.954;2023-06-01T09:40:25;6.47;;;2.30;;
54502;SDS011;40411;50.090;21.954;2023-06-01T09:42:50;6.03;;;2.10;;
54502;SDS011;40411;50.090;21.954;2023-06-01T09:45:20;7.57;;;2.30;;
54502;SDS011;40411;50.090;21.954;2023-06-01T09:47:48;4.97;;;2.10;;
54502;SDS011;40411;50.090;21.954;2023-06-01T09:53:00;4.80;;;2.08;;
54502;SDS011;40411;50.090;21.954;2023-06-01T09:55:27;8.13;;;2.15;;
54502;SDS011;40411;50.090;21.954;2023-06-01T09:58:16;11.57;;;2.47;;
54502;SDS011;40411;50.090;21.954;2023-06-01T10:00:44;8.23;;;2.03;;
54502;SDS011;40411;50.090;21.954;2023-06-01T10:03:11;13.20;;;3.13;;
54502;SDS011;40411;50.090;21.954;2023-06-01T10:05:39;7.22;;;2.17;;
54502;SDS011;40411;50.090;21.954;2023-06-01T10:08:05;6.88;;;2.13;;
54502;SDS011;40411;50.090;21.954;2023-06-01T10:10:32;4.85;;;2.08;;
54502;SDS011;40411;50.090;21.954;2023-06-01T10:12:58;6.75;;;2.15;;
54502;SDS011;40411;50.090;21.954;2023-06-01T10:15:24;8.38;;;2.22;;
54502;SDS011;40411;50.090;21.954;2023-06-01T10:17:50;5.88;;;2.20;;
54502;SDS011;40411;50.090;21.954;2023-06-01T10:20:17;5.50;;;2.15;;
54502;SDS011;40411;50.090;21.954;2023-06-01T10:22:43;6.97;;;2.50;;
54502;SDS011;40411;50.090;21.954;2023-06-01T10:25:09;9.23;;;2.05;;
54502;SDS011;40411;50.090;21.954;2023-06-01T10:27:39;7.63;;;2.10;;
54502;SDS011;40411;50.090;21.954;2023-06-01T10:30:11;6.03;;;2.35;;
54502;SDS011;40411;50.090;21.954;2023-06-01T10:35:08;6.90;;;2.10;;
54502;SDS011;40411;50.090;21.954;2023-06-01T10:37:35;5.88;;;2.22;;
54502;SDS011;40411;50.090;21.954;2023-06-01T10:40:20;8.50;;;2.55;;
54502;SDS011;40411;50.090;21.954;2023-06-01T10:42:47;4.45;;;2.00;;
54502;SDS011;40411;50.090;21.954;2023-06-01T10:48:04;8.25;;;2.20;;
54502;SDS011;40411;50.090;21.954;2023-06-01T10:50:32;7.05;;;1.95;;
54502;SDS011;40411;50.090;21.954;2023-06-01T10:59:23;4.80;;;2.00;;
54502;SDS011;40411;50.090;21.954;2023-06-01T11:01:45;7.77;;;1.77;;
54502;SDS011;40411;50.090;21.954;2023-06-01T11:04:12;8.85;;;2.10;;
54502;SDS011;40411;50.090;21.954;2023-06-01T11:06:39;6.15;;;2.00;;
54502;SDS011;40411;50.090;21.954;2023-06-01T11:09:08;8.07;;;1.88;;
54502;SDS011;40411;50.090;21.954;2023-06-01T11:14:13;8.20;;;2.33;;
54502;SDS011;40411;50.090;21.954;2023-06-01T11:16:41;5.40;;;2.13;;
54502;SDS011;40411;50.090;21.954;2023-06-01T11:19:07;7.47;;;2.65;;
54502;SDS011;40411;50.090;21.954;2023-06-01T11:21:38;5.72;;;2.17;;
54502;SDS011;40411;50.090;21.954;2023-06-01T11:24:11;6.75;;;2.28;;
54502;SDS011;40411;50.090;21.954;2023-06-01T11:26:45;8.52;;;2.58;;
54502;SDS011;40411;50.090;21.954;2023-06-01T11:31:45;7.55;;;2.05;;
54502;SDS011;40411;50.090;21.954;2023-06-01T11:34:11;10.05;;;2.00;;
54502;SDS011;40411;50.090;21.954;2023-06-01T11:36:40;11.02;;;2.17;;
54502;SDS011;40411;50.090;21.954;2023-06-01T11:39:26;5.00;;;2.35;;
54502;SDS011;40411;50.090;21.954;2023-06-01T11:42:04;9.05;;;2.10;;
54502;SDS011;40411;50.090;21.954;2023-06-01T11:44:32;5.78;;;2.22;;
54502;SDS011;40411;50.090;21.954;2023-06-01T11:46:59;10.45;;;1.95;;
54502;SDS011;40411;50.090;21.954;2023-06-01T11:49:26;12.82;;;2.38;;
54502;SDS011;40411;50.090;21.954;2023-06-01T11:51:52;6.88;;;1.92;;
54502;SDS011;40411;50.090;21.954;2023-06-01T11:54:22;6.28;;;1.92;;
54502;SDS011;40411;50.090;21.954;2023-06-01T11:56:49;6.50;;;2.35;;
54502;SDS011;40411;50.090;21.954;2023-06-01T11:59:17;4.93;;;1.88;;
54502;SDS011;40411;50.090;21.954;2023-06-01T12:01:45;11.40;;;2.63;;
54502;SDS011;40411;50.090;21.954;2023-06-01T12:04:21;7.50;;;2.13;;
54502;SDS011;40411;50.090;21.954;2023-06-01T12:06:49;6.70;;;2.30;;
54502;SDS011;40411;50.090;21.954;2023-06-01T12:09:16;7.40;;;2.15;;
54502;SDS011;40411;50.090;21.954;2023-06-01T12:11:43;6.88;;;2.20;;
54502;SDS011;40411;50.090;21.954;2023-06-01T12:14:10;13.32;;;2.15;;
54502;SDS011;40411;50.090;21.954;2023-06-01T12:19:19;8.05;;;2.30;;
54502;SDS011;40411;50.090;21.954;2023-06-01T12:21:50;7.32;;;2.50;;
54502;SDS011;40411;50.090;21.954;2023-06-01T12:24:38;6.13;;;1.88;;
54502;SDS011;40411;50.090;21.954;2023-06-01T12:27:12;6.07;;;2.70;;
54502;SDS011;40411;50.090;21.954;2023-06-01T12:32:07;10.65;;;2.53;;
54502;SDS011;40411;50.090;21.954;2023-06-01T12:34:34;14.32;;;1.90;;
54502;SDS011;40411;50.090;21.954;2023-06-01T12:37:10;7.63;;;2.42;;
54502;SDS011;40411;50.090;21.954;2023-06-01T12:39:40;11.23;;;2.13;;
54502;SDS011;40411;50.090;21.954;2023-06-01T12:42:07;5.97;;;2.08;;
54502;SDS011;40411;50.090;21.954;2023-06-01T12:44:35;5.57;;;2.10;;
54502;SDS011;40411;50.090;21.954;2023-06-01T12:47:02;7.40;;;2.50;;
54502;SDS011;40411;50.090;21.954;2023-06-01T12:49:29;6.07;;;2.53;;
54502;SDS011;40411;50.090;21.954;2023-06-01T12:51:55;4.72;;;2.10;;
54502;SDS011;40411;50.090;21.954;2023-06-01T12:54:22;5.65;;;2.08;;
54502;SDS011;40411;50.090;21.954;2023-06-01T12:56:48;6.20;;;1.95;;
54502;SDS011;40411;50.090;21.954;2023-06-01T12:59:15;9.73;;;2.40;;
54502;SDS011;40411;50.090;21.954;2023-06-01T13:01:41;8.35;;;2.13;;
54502;SDS011;40411;50.090;21.954;2023-06-01T13:04:06;5.22;;;1.98;;
54502;SDS011;40411;50.090;21.954;2023-06-01T13:06:34;6.55;;;2.30;;
54502;SDS011;40411;50.090;21.954;2023-06-01T13:09:00;9.30;;;2.22;;
54502;SDS011;40411;50.090;21.954;2023-06-01T13:11:26;5.38;;;2.20;;
54502;SDS011;40411;50.090;21.954;2023-06-01T13:13:52;6.97;;;2.33;;
54502;SDS011;40411;50.090;21.954;2023-06-01T13:16:19;6.90;;;2.05;;
54502;SDS011;40411;50.090;21.954;2023-06-01T13:18:46;6.68;;;2.10;;
54502;SDS011;40411;50.090;21.954;2023-06-01T13:21:16;7.15;;;2.13;;
54502;SDS011;40411;50.090;21.954;2023-06-01T13:23:43;6.50;;;1.85;;
54502;SDS011;40411;50.090;21.954;2023-06-01T13:26:10;6.85;;;2.03;;
54502;SDS011;40411;50.090;21.954;2023-06-01T13:28:36;6.68;;;2.00;;
54502;SDS011;40411;50.090;21.954;2023-06-01T13:31:02;8.25;;;2.13;;
54502;SDS011;40411;50.090;21.954;2023-06-01T13:33:28;6.28;;;2.20;;
54502;SDS011;40411;50.090;21.954;2023-06-01T13:35:54;8.48;;;2.33;;
54502;SDS011;40411;50.090;21.954;2023-06-01T13:38:20;8.15;;;2.03;;
54502;SDS011;40411;50.090;21.954;2023-06-01T13:40:46;10.65;;;2.40;;
54502;SDS011;40411;50.090;21.954;2023-06-01T13:43:12;7.15;;;1.90;;
54502;SDS011;40411;50.090;21.954;2023-06-01T13:45:38;7.32;;;2.20;;
54502;SDS011;40411;50.090;21.954;2023-06-01T13:48:04;9.20;;;2.28;;
54502;SDS011;40411;50.090;21.954;2023-06-01T13:50:30;7.28;;;2.28;;
54502;SDS011;40411;50.090;21.954;2023-06-01T13:52:56;6.13;;;2.10;;
54502;SDS011;40411;50.090;21.954;2023-06-01T13:55:22;11.93;;;2.25;;
54502;SDS011;40411;50.090;21.954;2023-06-01T13:57:47;4.75;;;1.90;;
54502;SDS011;40411;50.090;21.954;2023-06-01T14:00:14;7.80;;;2.00;;
54502;SDS011;40411;50.090;21.954;2023-06-01T14:02:43;10.13;;;2.25;;
54502;SDS011;40411;50.090;21.954;2023-06-01T14:05:09;9.38;;;2.33;;
54502;SDS011;40411;50.090;21.954;2023-06-01T14:07:36;4.00;;;1.70;;
54502;SDS011;40411;50.090;21.954;2023-06-01T14:10:02;6.45;;;2.15;;
54502;SDS011;40411;50.090;21.954;2023-06-01T14:12:28;6.72;;;1.80;;
54502;SDS011;40411;50.090;21.954;2023-06-01T14:14:54;6.95;;;2.08;;
54502;SDS011;40411;50.090;21.954;2023-06-01T14:17:20;9.50;;;2.50;;
54502;SDS011;40411;50.090;21.954;2023-06-01T14:19:46;8.18;;;1.92;;
54502;SDS011;40411;50.090;21.954;2023-06-01T14:22:11;6.32;;;1.95;;
54502;SDS011;40411;50.090;21.954;2023-06-01T14:24:37;9.00;;;2.05;;
54502;SDS011;40411;50.090;21.954;2023-06-01T14:27:03;7.35;;;2.42;;
54502;SDS011;40411;50.090;21.954;2023-06-01T14:29:29;8.98;;;2.22;;
54502;SDS011;40411;50.090;21.954;2023-06-01T14:31:55;10.48;;;4.75;;
54502;SDS011;40411;50.090;21.954;2023-06-01T14:34:21;11.27;;;5.18;;
54502;SDS011;40411;50.090;21.954;2023-06-01T14:36:47;7.13;;;3.05;;
54502;SDS011;40411;50.090;21.954;2023-06-01T14:39:13;15.73;;;6.78;;
54502;SDS011;40411;50.090;21.954;2023-06-01T14:41:39;11.52;;;5.95;;
54502;SDS011;40411;50.090;21.954;2023-06-01T14:44:06;17.13;;;6.78;;
54502;SDS011;40411;50.090;21.954;2023-06-01T14:46:32;14.93;;;3.60;;
54502;SDS011;40411;50.090;21.954;2023-06-01T14:48:58;5.82;;;3.17;;
54502;SDS011;40411;50.090;21.954;2023-06-01T14:51:26;4.68;;;1.90;;
54502;SDS011;40411;50.090;21.954;2023-06-01T14:53:53;6.38;;;2.03;;
54502;SDS011;40411;50.090;21.954;2023-06-01T14:56:18;5.78;;;2.25;;
54502;SDS011;40411;50.090;21.954;2023-06-01T14:58:46;8.18;;;2.35;;
54502;SDS011;40411;50.090;21.954;2023-06-01T15:01:12;6.03;;;2.20;;
54502;SDS011;40411;50.090;21.954;2023-06-01T15:03:38;5.25;;;1.83;;
54502;SDS011;40411;50.090;21.954;2023-06-01T15:06:03;6.82;;;2.25;;
54502;SDS011;40411;50.090;21.954;2023-06-01T15:08:29;8.52;;;2.30;;
54502;SDS011;40411;50.090;21.954;2023-06-01T15:10:55;5.22;;;1.95;;